Terminal Aerodrome Forecast
Issued by NWS Austin/San Antonio, TX

Home | Current Version | Previous Version | Text Only | Print | Product List | Glossary On
Versions: 1 2 3 4 5 6 7 8 9 10 11 12 13 14 15 16 17 18 19
000
FTUS44 KEWX 172300
TAFDRT
TAF
KDRT 172322Z 1800/1824 18005KT P6SM SKC
     FM180700 11005KT P6SM BKN025 BKN050
     FM181600 14010KT P6SM BKN050=

USA.gov is the U.S. government's official web portal to all federal, state and local government web resources and services.